createdAt,value
2019-05-14T00:04:25.175Z,38.40
2019-05-14T00:14:37.245Z,32.42
2019-05-14T00:24:34.151Z,28.43
2019-05-14T00:34:37.729Z,29.48
2019-05-14T00:44:53.816Z,30.41
2019-05-14T00:54:47.750Z,31.31
2019-05-14T01:04:51.864Z,33.10
2019-05-14T01:15:07.058Z,35.81
2019-05-14T01:25:01.572Z,38.21
2019-05-14T01:35:07.277Z,38.21
2019-05-14T01:45:23.947Z,38.69
2019-05-14T01:55:17.614Z,38.99
2019-05-14T02:05:21.791Z,38.30
2019-05-14T02:15:37.161Z,37.99
2019-05-14T02:25:31.959Z,31.95
2019-05-14T02:35:35.850Z,28.26
2019-05-14T02:45:58.636Z,28.84
2019-05-14T02:55:45.381Z,30.23
2019-05-14T03:05:49.733Z,32.16
2019-05-14T03:15:53.520Z,33.88
2019-05-14T03:26:00.096Z,36.50
2019-05-14T03:36:09.442Z,36.34
2019-05-14T03:46:09.704Z,37.11
2019-05-14T03:56:12.999Z,38.88
2019-05-14T04:06:19.182Z,38.55
2019-05-14T04:16:22.725Z,38.35
2019-05-14T04:26:26.310Z,34.41
2019-05-14T04:36:30.366Z,27.77
2019-05-14T04:46:34.049Z,27.15
2019-05-14T04:56:39.796Z,28.00
2019-05-14T05:06:42.964Z,28.74
2019-05-14T05:16:49.122Z,29.69
2019-05-14T05:26:52.787Z,30.55
2019-05-14T05:36:58.993Z,31.37
2019-05-14T05:47:01.702Z,31.61
2019-05-14T05:57:05.577Z,32.16
2019-05-14T06:07:09.197Z,32.37
2019-05-14T06:17:12.776Z,33.23
2019-05-14T06:27:18.221Z,32.58
2019-05-14T06:37:21.670Z,33.46
2019-05-14T06:47:25.246Z,33.70
2019-05-14T06:57:28.862Z,30.21
2019-05-14T07:07:32.468Z,31.55
2019-05-14T07:17:38.411Z,32.83
2019-05-14T07:27:41.413Z,32.90
2019-05-14T07:37:45.000Z,32.44
2019-05-14T07:47:49.320Z,33.80
2019-05-14T07:57:53.029Z,33.63
2019-05-14T08:07:58.594Z,33.01
2019-05-14T08:18:02.316Z,30.50
2019-05-14T08:28:07.977Z,26.21
2019-05-14T08:38:12.171Z,26.60
2019-05-14T08:48:18.771Z,28.86
2019-05-14T08:58:21.442Z,31.01
2019-05-14T09:08:28.267Z,33.88
2019-05-14T09:18:31.300Z,34.50
2019-05-14T09:28:34.930Z,34.12
2019-05-14T09:38:42.225Z,32.69
2019-05-14T09:48:44.170Z,33.00
2019-05-14T09:58:49.673Z,32.69
2019-05-14T10:08:53.078Z,34.51
2019-05-14T10:18:56.513Z,35.53
2019-05-14T10:29:01.702Z,35.87
2019-05-14T10:39:09.379Z,35.96
2019-05-14T10:49:22.631Z,36.94
2019-05-14T10:59:18.396Z,37.05
2019-05-14T11:09:22.177Z,36.47
2019-05-14T11:19:28.037Z,40.32
2019-05-14T11:29:31.107Z,39.08
2019-05-14T11:39:34.696Z,39.63
2019-05-14T11:49:38.275Z,40.20
2019-05-14T11:59:41.867Z,40.15
2019-05-14T12:09:45.466Z,38.64
2019-05-14T12:19:49.088Z,38.76
2019-05-14T12:29:53.008Z,36.99
2019-05-14T12:39:58.635Z,38.04
2019-05-14T12:50:01.900Z,37.65
2019-05-14T13:00:09.005Z,36.31
2019-05-14T13:10:13.678Z,35.87
2019-05-14T13:20:18.548Z,35.89
2019-05-14T13:30:22.432Z,36.93
2019-05-14T13:40:28.273Z,37.42
2019-05-14T13:50:31.320Z,39.50
2019-05-14T14:00:34.921Z,36.47
2019-05-14T14:10:45.132Z,37.15
2019-05-14T14:20:44.030Z,39.48
2019-05-14T14:30:49.171Z,38.49
2019-05-14T14:40:52.998Z,39.95
2019-05-14T14:50:58.600Z,39.19
2019-05-14T15:01:01.907Z,39.84
2019-05-14T15:11:08.296Z,37.18
2019-05-14T15:21:11.094Z,36.27
2019-05-14T15:31:14.734Z,36.66
2019-05-14T15:41:20.085Z,34.87
2019-05-14T15:51:23.613Z,33.81
2019-05-14T16:01:28.554Z,36.86
2019-05-14T16:11:32.609Z,35.35
2019-05-14T16:21:38.632Z,36.12
2019-05-14T16:31:43.384Z,38.02
2019-05-14T16:41:48.977Z,38.13
2019-05-14T16:51:52.443Z,40.33
2019-05-14T17:01:58.461Z,38.66
2019-05-14T17:12:01.675Z,39.27
2019-05-14T17:22:23.340Z,36.47
2019-05-14T17:32:10.638Z,36.13
2019-05-14T17:42:14.302Z,32.63
2019-05-14T17:52:21.752Z,35.52
2019-05-14T18:02:23.283Z,35.27
2019-05-14T18:12:30.075Z,36.21
2019-05-14T18:22:32.204Z,38.30
2019-05-14T18:32:35.820Z,37.78
2019-05-14T18:42:39.458Z,39.35
2019-05-14T18:52:43.036Z,39.25
2019-05-14T19:02:48.249Z,39.72
2019-05-14T19:12:52.000Z,40.42
2019-05-14T19:22:55.574Z,38.96
2019-05-14T19:32:59.179Z,33.53
2019-05-14T19:43:02.754Z,29.14
2019-05-14T19:53:08.915Z,27.17
2019-05-14T20:03:11.686Z,29.41
2019-05-14T20:13:15.275Z,30.77
2019-05-14T20:33:22.231Z,32.52
2019-05-14T20:43:26.137Z,34.64
2019-05-14T20:53:29.759Z,35.71
2019-05-14T21:03:33.373Z,35.47
2019-05-14T21:13:37.016Z,36.84
2019-05-14T21:23:40.591Z,37.10
2019-05-14T21:33:44.462Z,36.60
2019-05-14T21:43:49.283Z,38.04
2019-05-14T21:53:53.072Z,35.93
2019-05-14T22:03:59.149Z,27.36
2019-05-14T22:14:02.521Z,26.75
2019-05-14T22:24:06.252Z,27.91
2019-05-14T22:34:09.983Z,29.15
2019-05-14T22:44:13.716Z,30.97
2019-05-14T22:54:17.721Z,32.37
2019-05-14T23:04:22.857Z,34.20
2019-05-14T23:14:28.207Z,36.15
2019-05-14T23:24:32.015Z,36.65
2019-05-14T23:34:37.845Z,37.32
2019-05-14T23:44:40.899Z,37.08
2019-05-14T23:54:44.478Z,37.94
